sensor_id;sensor_type;location;lat;lon;timestamp;temperature;humidity
16666;DHT22;8446;50.998;6.250;2023-07-31T00:01:07;16.30;99.90
16666;DHT22;8446;50.998;6.250;2023-07-31T00:03:34;16.20;99.90
16666;DHT22;8446;50.998;6.250;2023-07-31T00:06:01;16.30;99.90
16666;DHT22;8446;50.998;6.250;2023-07-31T00:08:28;16.30;99.90
16666;DHT22;8446;50.998;6.250;2023-07-31T00:10:55;16.30;99.90
16666;DHT22;8446;50.998;6.250;2023-07-31T00:13:21;16.20;99.90
16666;DHT22;8446;50.998;6.250;2023-07-31T00:15:50;16.30;99.90
16666;DHT22;8446;50.998;6.250;2023-07-31T00:18:16;16.30;99.90
16666;DHT22;8446;50.998;6.250;2023-07-31T00:20:43;16.30;99.90
16666;DHT22;8446;50.998;6.250;2023-07-31T00:23:10;16.30;99.90
16666;DHT22;8446;50.998;6.250;2023-07-31T00:25:37;16.30;99.90
16666;DHT22;8446;50.998;6.250;2023-07-31T00:28:04;16.30;99.90
16666;DHT22;8446;50.998;6.250;2023-07-31T00:30:31;16.30;99.90
16666;DHT22;8446;50.998;6.250;2023-07-31T00:32:59;16.30;99.90
16666;DHT22;8446;50.998;6.250;2023-07-31T00:35:26;16.30;99.90
16666;DHT22;8446;50.998;6.250;2023-07-31T00:37:53;16.30;99.90
16666;DHT22;8446;50.998;6.250;2023-07-31T00:40:20;16.40;99.90
16666;DHT22;8446;50.998;6.250;2023-07-31T00:42:47;16.50;99.90
16666;DHT22;8446;50.998;6.250;2023-07-31T00:45:13;16.50;99.90
16666;DHT22;8446;50.998;6.250;2023-07-31T00:47:40;16.30;99.90
16666;DHT22;8446;50.998;6.250;2023-07-31T00:50:09;16.30;99.90
16666;DHT22;8446;50.998;6.250;2023-07-31T00:52:36;16.40;99.90
16666;DHT22;8446;50.998;6.250;2023-07-31T00:55:04;16.30;99.90
16666;DHT22;8446;50.998;6.250;2023-07-31T00:57:32;16.40;99.90
16666;DHT22;8446;50.998;6.250;2023-07-31T01:00:00;16.40;99.90
16666;DHT22;8446;50.998;6.250;2023-07-31T01:02:26;16.20;99.90
16666;DHT22;8446;50.998;6.250;2023-07-31T01:04:53;16.20;99.90
16666;DHT22;8446;50.998;6.250;2023-07-31T01:07:27;16.20;99.90
16666;DHT22;8446;50.998;6.250;2023-07-31T01:10:02;16.10;99.90
16666;DHT22;8446;50.998;6.250;2023-07-31T01:12:31;16.00;99.90
16666;DHT22;8446;50.998;6.250;2023-07-31T01:15:06;16.10;99.90
16666;DHT22;8446;50.998;6.250;2023-07-31T01:17:36;16.20;99.90
16666;DHT22;8446;50.998;6.250;2023-07-31T01:20:07;16.20;99.90
16666;DHT22;8446;50.998;6.250;2023-07-31T01:22:53;16.20;99.90
16666;DHT22;8446;50.998;6.250;2023-07-31T01:25:35;16.20;99.90
16666;DHT22;8446;50.998;6.250;2023-07-31T01:28:09;16.20;99.90
16666;DHT22;8446;50.998;6.250;2023-07-31T01:30:41;16.20;99.90
16666;DHT22;8446;50.998;6.250;2023-07-31T01:33:10;16.30;99.90
16666;DHT22;8446;50.998;6.250;2023-07-31T01:35:37;16.30;99.90
16666;DHT22;8446;50.998;6.250;2023-07-31T01:38:05;16.30;99.90
16666;DHT22;8446;50.998;6.250;2023-07-31T01:40:32;16.30;99.90
16666;DHT22;8446;50.998;6.250;2023-07-31T01:42:59;16.30;99.90
16666;DHT22;8446;50.998;6.250;2023-07-31T01:45:27;16.30;99.90
16666;DHT22;8446;50.998;6.250;2023-07-31T01:47:54;16.40;99.90
16666;DHT22;8446;50.998;6.250;2023-07-31T01:50:20;16.40;99.90
16666;DHT22;8446;50.998;6.250;2023-07-31T01:52:47;16.30;99.90
16666;DHT22;8446;50.998;6.250;2023-07-31T01:55:14;16.40;99.90
16666;DHT22;8446;50.998;6.250;2023-07-31T01:57:41;16.40;99.90
16666;DHT22;8446;50.998;6.250;2023-07-31T02:00:08;16.40;99.90
16666;DHT22;8446;50.998;6.250;2023-07-31T02:02:37;16.50;99.90
16666;DHT22;8446;50.998;6.250;2023-07-31T02:05:04;16.40;99.90
16666;DHT22;8446;50.998;6.250;2023-07-31T02:07:31;16.40;99.90
16666;DHT22;8446;50.998;6.250;2023-07-31T02:09:58;16.50;99.90
16666;DHT22;8446;50.998;6.250;2023-07-31T02:12:24;16.50;99.90
16666;DHT22;8446;50.998;6.250;2023-07-31T02:14:51;16.50;99.90
16666;DHT22;8446;50.998;6.250;2023-07-31T02:17:18;16.50;99.90
16666;DHT22;8446;50.998;6.250;2023-07-31T02:19:46;16.50;99.90
16666;DHT22;8446;50.998;6.250;2023-07-31T02:22:13;16.70;99.90
16666;DHT22;8446;50.998;6.250;2023-07-31T02:24:40;16.60;99.90
16666;DHT22;8446;50.998;6.250;2023-07-31T02:27:07;16.70;99.90
16666;DHT22;8446;50.998;6.250;2023-07-31T02:29:33;16.70;99.90
16666;DHT22;8446;50.998;6.250;2023-07-31T02:32:00;16.60;99.90
16666;DHT22;8446;50.998;6.250;2023-07-31T02:34:27;16.60;99.90
16666;DHT22;8446;50.998;6.250;2023-07-31T02:36:55;16.60;99.90
16666;DHT22;8446;50.998;6.250;2023-07-31T02:39:22;16.60;99.90
16666;DHT22;8446;50.998;6.250;2023-07-31T02:41:48;16.60;99.90
16666;DHT22;8446;50.998;6.250;2023-07-31T02:44:15;16.60;99.90
16666;DHT22;8446;50.998;6.250;2023-07-31T02:46:42;16.60;99.90
16666;DHT22;8446;50.998;6.250;2023-07-31T02:49:09;16.60;99.90
16666;DHT22;8446;50.998;6.250;2023-07-31T02:51:35;16.60;99.90
16666;DHT22;8446;50.998;6.250;2023-07-31T02:54:03;16.60;99.90
16666;DHT22;8446;50.998;6.250;2023-07-31T02:56:30;16.50;99.90
16666;DHT22;8446;50.998;6.250;2023-07-31T02:58:57;16.60;99.90
16666;DHT22;8446;50.998;6.250;2023-07-31T03:01:24;16.60;99.90
16666;DHT22;8446;50.998;6.250;2023-07-31T03:03:51;16.50;99.90
16666;DHT22;8446;50.998;6.250;2023-07-31T03:06:17;16.50;99.90
16666;DHT22;8446;50.998;6.250;2023-07-31T03:08:44;16.60;99.90
16666;DHT22;8446;50.998;6.250;2023-07-31T03:11:13;16.60;99.90
16666;DHT22;8446;50.998;6.250;2023-07-31T03:13:39;16.60;99.90
16666;DHT22;8446;50.998;6.250;2023-07-31T03:16:06;16.60;99.90
16666;DHT22;8446;50.998;6.250;2023-07-31T03:18:33;16.60;99.90
16666;DHT22;8446;50.998;6.250;2023-07-31T03:21:00;16.60;99.90
16666;DHT22;8446;50.998;6.250;2023-07-31T03:23:26;16.60;99.90
16666;DHT22;8446;50.998;6.250;2023-07-31T03:25:57;16.60;99.90
16666;DHT22;8446;50.998;6.250;2023-07-31T03:28:25;16.60;99.90
16666;DHT22;8446;50.998;6.250;2023-07-31T03:30:52;16.60;99.90
16666;DHT22;8446;50.998;6.250;2023-07-31T03:33:19;16.70;99.90
16666;DHT22;8446;50.998;6.250;2023-07-31T03:35:46;16.70;99.90
16666;DHT22;8446;50.998;6.250;2023-07-31T03:38:13;16.70;99.90
16666;DHT22;8446;50.998;6.250;2023-07-31T03:40:40;16.70;99.90
16666;DHT22;8446;50.998;6.250;2023-07-31T03:43:06;16.60;99.90
16666;DHT22;8446;50.998;6.250;2023-07-31T03:45:35;16.60;99.90
16666;DHT22;8446;50.998;6.250;2023-07-31T03:48:01;16.60;99.90
16666;DHT22;8446;50.998;6.250;2023-07-31T03:50:28;16.50;99.90
16666;DHT22;8446;50.998;6.250;2023-07-31T03:52:55;16.60;99.90
16666;DHT22;8446;50.998;6.250;2023-07-31T03:55:22;16.50;99.90
16666;DHT22;8446;50.998;6.250;2023-07-31T03:57:49;16.60;99.90
16666;DHT22;8446;50.998;6.250;2023-07-31T04:00:15;16.60;99.90
16666;DHT22;8446;50.998;6.250;2023-07-31T04:02:44;16.60;99.90
16666;DHT22;8446;50.998;6.250;2023-07-31T04:05:11;16.60;99.90
16666;DHT22;8446;50.998;6.250;2023-07-31T04:07:37;16.80;99.90
16666;DHT22;8446;50.998;6.250;2023-07-31T04:10:05;16.80;99.90
16666;DHT22;8446;50.998;6.250;2023-07-31T04:12:32;16.80;99.90
16666;DHT22;8446;50.998;6.250;2023-07-31T04:14:58;16.70;99.90
16666;DHT22;8446;50.998;6.250;2023-07-31T04:17:25;16.90;99.90
16666;DHT22;8446;50.998;6.250;2023-07-31T04:19:53;16.90;99.90
16666;DHT22;8446;50.998;6.250;2023-07-31T04:22:20;16.80;99.90
16666;DHT22;8446;50.998;6.250;2023-07-31T04:24:47;16.80;99.90
16666;DHT22;8446;50.998;6.250;2023-07-31T04:27:14;16.90;99.90
16666;DHT22;8446;50.998;6.250;2023-07-31T04:29:41;16.80;99.90
16666;DHT22;8446;50.998;6.250;2023-07-31T04:32:09;16.90;99.90
16666;DHT22;8446;50.998;6.250;2023-07-31T04:34:36;16.90;99.90
16666;DHT22;8446;50.998;6.250;2023-07-31T04:37:04;16.90;99.90
16666;DHT22;8446;50.998;6.250;2023-07-31T04:39:31;16.90;99.90
16666;DHT22;8446;50.998;6.250;2023-07-31T04:41:58;16.90;99.90
16666;DHT22;8446;50.998;6.250;2023-07-31T04:44:25;16.90;99.90
16666;DHT22;8446;50.998;6.250;2023-07-31T04:46:51;16.90;99.90
16666;DHT22;8446;50.998;6.250;2023-07-31T04:49:18;16.90;99.90
16666;DHT22;8446;50.998;6.250;2023-07-31T04:51:45;17.00;99.90
16666;DHT22;8446;50.998;6.250;2023-07-31T04:54:13;17.00;99.90
16666;DHT22;8446;50.998;6.250;2023-07-31T04:56:41;17.00;99.90
16666;DHT22;8446;50.998;6.250;2023-07-31T04:59:08;17.00;99.90
16666;DHT22;8446;50.998;6.250;2023-07-31T05:01:35;17.00;99.90
16666;DHT22;8446;50.998;6.250;2023-07-31T05:04:01;17.10;99.90
16666;DHT22;8446;50.998;6.250;2023-07-31T05:06:28;17.10;99.90
16666;DHT22;8446;50.998;6.250;2023-07-31T05:08:55;17.00;99.90
16666;DHT22;8446;50.998;6.250;2023-07-31T05:11:23;17.00;99.90
16666;DHT22;8446;50.998;6.250;2023-07-31T05:13:50;17.00;99.90
16666;DHT22;8446;50.998;6.250;2023-07-31T05:16:17;17.10;99.90
16666;DHT22;8446;50.998;6.250;2023-07-31T05:18:43;16.90;99.90
16666;DHT22;8446;50.998;6.250;2023-07-31T05:21:10;16.90;99.90
16666;DHT22;8446;50.998;6.250;2023-07-31T05:23:37;16.80;99.90
16666;DHT22;8446;50.998;6.250;2023-07-31T05:26:04;16.90;99.90
16666;DHT22;8446;50.998;6.250;2023-07-31T05:28:34;16.80;99.90
16666;DHT22;8446;50.998;6.250;2023-07-31T05:31:02;16.90;99.90
16666;DHT22;8446;50.998;6.250;2023-07-31T05:33:29;16.80;99.90
16666;DHT22;8446;50.998;6.250;2023-07-31T05:35:56;16.70;99.90
16666;DHT22;8446;50.998;6.250;2023-07-31T05:38:23;16.60;99.90
16666;DHT22;8446;50.998;6.250;2023-07-31T05:40:49;16.60;99.90
16666;DHT22;8446;50.998;6.250;2023-07-31T05:43:16;16.60;99.90
16666;DHT22;8446;50.998;6.250;2023-07-31T05:45:44;16.70;99.90
16666;DHT22;8446;50.998;6.250;2023-07-31T05:48:11;16.60;99.90
16666;DHT22;8446;50.998;6.250;2023-07-31T05:50:38;16.60;99.90
16666;DHT22;8446;50.998;6.250;2023-07-31T05:53:05;16.60;99.90
16666;DHT22;8446;50.998;6.250;2023-07-31T05:55:33;16.50;99.90
16666;DHT22;8446;50.998;6.250;2023-07-31T05:58:00;16.60;99.90
16666;DHT22;8446;50.998;6.250;2023-07-31T06:00:27;16.50;99.90
16666;DHT22;8446;50.998;6.250;2023-07-31T06:02:55;16.60;99.90
16666;DHT22;8446;50.998;6.250;2023-07-31T06:05:22;16.60;99.90
16666;DHT22;8446;50.998;6.250;2023-07-31T06:07:49;16.50;99.90
16666;DHT22;8446;50.998;6.250;2023-07-31T06:10:16;16.50;99.90
16666;DHT22;8446;50.998;6.250;2023-07-31T06:12:42;16.60;99.90
16666;DHT22;8446;50.998;6.250;2023-07-31T06:15:10;16.60;99.90
16666;DHT22;8446;50.998;6.250;2023-07-31T06:17:36;16.70;99.90
16666;DHT22;8446;50.998;6.250;2023-07-31T06:20:07;16.70;99.90
16666;DHT22;8446;50.998;6.250;2023-07-31T06:22:34;16.80;99.90
16666;DHT22;8446;50.998;6.250;2023-07-31T06:25:00;16.90;99.90
16666;DHT22;8446;50.998;6.250;2023-07-31T06:27:27;16.90;99.90
16666;DHT22;8446;50.998;6.250;2023-07-31T06:29:54;17.00;99.90
16666;DHT22;8446;50.998;6.250;2023-07-31T06:32:21;17.00;99.90
16666;DHT22;8446;50.998;6.250;2023-07-31T06:34:48;17.00;99.90
16666;DHT22;8446;50.998;6.250;2023-07-31T06:37:16;17.10;99.90
16666;DHT22;8446;50.998;6.250;2023-07-31T06:39:43;17.10;99.90
16666;DHT22;8446;50.998;6.250;2023-07-31T06:42:10;17.20;99.90
16666;DHT22;8446;50.998;6.250;2023-07-31T06:44:37;17.20;99.90
16666;DHT22;8446;50.998;6.250;2023-07-31T06:47:04;17.10;99.90
16666;DHT22;8446;50.998;6.250;2023-07-31T06:49:31;17.10;99.90
16666;DHT22;8446;50.998;6.250;2023-07-31T06:51:57;17.10;99.90
16666;DHT22;8446;50.998;6.250;2023-07-31T06:54:26;17.10;99.90
16666;DHT22;8446;50.998;6.250;2023-07-31T06:56:52;17.10;99.90
16666;DHT22;8446;50.998;6.250;2023-07-31T06:59:19;17.00;99.90
16666;DHT22;8446;50.998;6.250;2023-07-31T07:01:46;17.10;99.90
16666;DHT22;8446;50.998;6.250;2023-07-31T07:04:14;17.10;99.90
16666;DHT22;8446;50.998;6.250;2023-07-31T07:06:40;17.00;99.90
16666;DHT22;8446;50.998;6.250;2023-07-31T07:09:07;16.90;99.90
16666;DHT22;8446;50.998;6.250;2023-07-31T07:11:36;16.80;99.90
16666;DHT22;8446;50.998;6.250;2023-07-31T07:14:03;16.80;99.90
16666;DHT22;8446;50.998;6.250;2023-07-31T07:16:30;16.80;99.90
16666;DHT22;8446;50.998;6.250;2023-07-31T07:18:56;16.70;99.90
16666;DHT22;8446;50.998;6.250;2023-07-31T07:21:23;16.60;99.90
16666;DHT22;8446;50.998;6.250;2023-07-31T07:23:50;16.50;99.90
16666;DHT22;8446;50.998;6.250;2023-07-31T07:26:17;16.50;99.90
16666;DHT22;8446;50.998;6.250;2023-07-31T07:28:45;16.50;99.90
16666;DHT22;8446;50.998;6.250;2023-07-31T07:31:12;16.50;99.90
16666;DHT22;8446;50.998;6.250;2023-07-31T07:33:39;16.50;99.90
16666;DHT22;8446;50.998;6.250;2023-07-31T07:36:06;16.50;99.90
16666;DHT22;8446;50.998;6.250;2023-07-31T07:38:35;16.60;99.90
16666;DHT22;8446;50.998;6.250;2023-07-31T07:41:02;16.50;99.90
16666;DHT22;8446;50.998;6.250;2023-07-31T07:43:29;16.50;99.90
16666;DHT22;8446;50.998;6.250;2023-07-31T07:45:57;16.60;99.90
16666;DHT22;8446;50.998;6.250;2023-07-31T07:48:24;16.60;99.90
16666;DHT22;8446;50.998;6.250;2023-07-31T07:50:51;16.60;99.90
16666;DHT22;8446;50.998;6.250;2023-07-31T07:53:18;16.60;99.90
16666;DHT22;8446;50.998;6.250;2023-07-31T07:55:45;16.60;99.90
16666;DHT22;8446;50.998;6.250;2023-07-31T07:58:11;16.60;99.90
16666;DHT22;8446;50.998;6.250;2023-07-31T08:00:39;16.50;99.90
16666;DHT22;8446;50.998;6.250;2023-07-31T08:03:07;16.50;99.90
16666;DHT22;8446;50.998;6.250;2023-07-31T08:05:35;16.50;99.90
16666;DHT22;8446;50.998;6.250;2023-07-31T08:08:03;16.50;99.90
16666;DHT22;8446;50.998;6.250;2023-07-31T08:10:29;16.60;99.90
16666;DHT22;8446;50.998;6.250;2023-07-31T08:12:56;16.60;99.90
16666;DHT22;8446;50.998;6.250;2023-07-31T08:15:23;16.70;99.90
16666;DHT22;8446;50.998;6.250;2023-07-31T08:17:50;16.90;99.90
16666;DHT22;8446;50.998;6.250;2023-07-31T08:20:18;16.90;99.90
16666;DHT22;8446;50.998;6.250;2023-07-31T08:22:45;16.90;99.90
16666;DHT22;8446;50.998;6.250;2023-07-31T08:25:12;16.80;99.90
16666;DHT22;8446;50.998;6.250;2023-07-31T08:27:38;16.80;99.90
16666;DHT22;8446;50.998;6.250;2023-07-31T08:30:09;16.80;99.90
16666;DHT22;8446;50.998;6.250;2023-07-31T08:32:36;16.80;99.90
16666;DHT22;8446;50.998;6.250;2023-07-31T08:35:04;16.90;99.90
16666;DHT22;8446;50.998;6.250;2023-07-31T08:37:32;16.90;99.90
16666;DHT22;8446;50.998;6.250;2023-07-31T08:39:59;16.80;99.90
16666;DHT22;8446;50.998;6.250;2023-07-31T08:42:25;16.80;99.90
16666;DHT22;8446;50.998;6.250;2023-07-31T08:44:53;16.80;99.90
16666;DHT22;8446;50.998;6.250;2023-07-31T08:47:22;16.80;99.90
16666;DHT22;8446;50.998;6.250;2023-07-31T08:49:50;16.70;99.90
16666;DHT22;8446;50.998;6.250;2023-07-31T08:52:17;16.80;99.90
16666;DHT22;8446;50.998;6.250;2023-07-31T08:54:45;17.00;99.90
16666;DHT22;8446;50.998;6.250;2023-07-31T08:57:13;17.00;99.90
16666;DHT22;8446;50.998;6.250;2023-07-31T08:59:40;17.10;99.90
16666;DHT22;8446;50.998;6.250;2023-07-31T09:02:08;17.00;99.90
16666;DHT22;8446;50.998;6.250;2023-07-31T09:04:35;17.00;99.90
16666;DHT22;8446;50.998;6.250;2023-07-31T09:07:03;17.10;99.90
16666;DHT22;8446;50.998;6.250;2023-07-31T09:09:32;17.30;99.90
16666;DHT22;8446;50.998;6.250;2023-07-31T09:12:00;17.40;99.90
16666;DHT22;8446;50.998;6.250;2023-07-31T09:14:28;17.20;99.90
16666;DHT22;8446;50.998;6.250;2023-07-31T09:16:55;17.20;99.90
16666;DHT22;8446;50.998;6.250;2023-07-31T09:19:28;17.20;99.90
16666;DHT22;8446;50.998;6.250;2023-07-31T09:21:55;17.20;99.90
16666;DHT22;8446;50.998;6.250;2023-07-31T09:24:26;17.20;99.90
16666;DHT22;8446;50.998;6.250;2023-07-31T09:26:54;17.20;99.90
16666;DHT22;8446;50.998;6.250;2023-07-31T09:29:23;17.30;99.90
16666;DHT22;8446;50.998;6.250;2023-07-31T09:31:50;17.30;99.90
16666;DHT22;8446;50.998;6.250;2023-07-31T09:34:17;17.30;99.90
16666;DHT22;8446;50.998;6.250;2023-07-31T09:36:45;17.30;99.90
16666;DHT22;8446;50.998;6.250;2023-07-31T09:39:14;17.20;99.90
16666;DHT22;8446;50.998;6.250;2023-07-31T09:41:43;17.20;99.90
16666;DHT22;8446;50.998;6.250;2023-07-31T09:44:10;17.20;99.90
16666;DHT22;8446;50.998;6.250;2023-07-31T09:46:38;17.30;99.90
16666;DHT22;8446;50.998;6.250;2023-07-31T09:49:07;17.30;99.90
16666;DHT22;8446;50.998;6.250;2023-07-31T09:51:34;17.30;99.90
16666;DHT22;8446;50.998;6.250;2023-07-31T09:54:08;17.20;99.90
16666;DHT22;8446;50.998;6.250;2023-07-31T09:56:36;17.20;99.90
16666;DHT22;8446;50.998;6.250;2023-07-31T09:59:04;17.30;99.90
16666;DHT22;8446;50.998;6.250;2023-07-31T10:01:31;17.30;99.90
16666;DHT22;8446;50.998;6.250;2023-07-31T10:04:01;17.30;99.90
16666;DHT22;8446;50.998;6.250;2023-07-31T10:06:29;17.30;99.90
16666;DHT22;8446;50.998;6.250;2023-07-31T10:08:56;17.30;99.90
16666;DHT22;8446;50.998;6.250;2023-07-31T10:11:25;17.40;99.90
16666;DHT22;8446;50.998;6.250;2023-07-31T10:13:54;17.50;99.90
16666;DHT22;8446;50.998;6.250;2023-07-31T10:16:21;17.50;99.90
16666;DHT22;8446;50.998;6.250;2023-07-31T10:18:49;17.60;99.90
16666;DHT22;8446;50.998;6.250;2023-07-31T10:21:18;17.70;99.90
16666;DHT22;8446;50.998;6.250;2023-07-31T10:23:46;17.90;99.90
16666;DHT22;8446;50.998;6.250;2023-07-31T10:26:16;17.90;99.90
16666;DHT22;8446;50.998;6.250;2023-07-31T10:28:44;17.80;99.90
16666;DHT22;8446;50.998;6.250;2023-07-31T10:31:13;17.70;99.90
16666;DHT22;8446;50.998;6.250;2023-07-31T10:33:40;17.60;99.90
16666;DHT22;8446;50.998;6.250;2023-07-31T10:36:13;17.50;99.90
16666;DHT22;8446;50.998;6.250;2023-07-31T10:38:42;17.50;99.90
16666;DHT22;8446;50.998;6.250;2023-07-31T10:41:09;17.60;99.90
16666;DHT22;8446;50.998;6.250;2023-07-31T10:43:37;17.80;99.90
16666;DHT22;8446;50.998;6.250;2023-07-31T10:46:06;17.90;99.90
16666;DHT22;8446;50.998;6.250;2023-07-31T10:48:35;17.80;99.90
16666;DHT22;8446;50.998;6.250;2023-07-31T10:51:07;18.00;99.90
16666;DHT22;8446;50.998;6.250;2023-07-31T10:53:36;18.00;99.90
16666;DHT22;8446;50.998;6.250;2023-07-31T10:56:05;18.00;99.90
16666;DHT22;8446;50.998;6.250;2023-07-31T10:58:32;18.00;99.90
16666;DHT22;8446;50.998;6.250;2023-07-31T11:01:01;18.00;99.90
16666;DHT22;8446;50.998;6.250;2023-07-31T11:03:41;18.10;99.90
16666;DHT22;8446;50.998;6.250;2023-07-31T11:06:09;17.90;99.90
16666;DHT22;8446;50.998;6.250;2023-07-31T11:08:41;18.00;99.90
16666;DHT22;8446;50.998;6.250;2023-07-31T11:11:11;18.10;99.90
16666;DHT22;8446;50.998;6.250;2023-07-31T11:13:44;18.30;99.90
16666;DHT22;8446;50.998;6.250;2023-07-31T11:16:12;18.10;99.90
16666;DHT22;8446;50.998;6.250;2023-07-31T11:18:40;18.20;99.90
16666;DHT22;8446;50.998;6.250;2023-07-31T11:21:08;18.30;99.90
16666;DHT22;8446;50.998;6.250;2023-07-31T11:23:37;18.30;99.90
16666;DHT22;8446;50.998;6.250;2023-07-31T11:26:05;18.20;99.90
16666;DHT22;8446;50.998;6.250;2023-07-31T11:28:34;18.40;99.90
16666;DHT22;8446;50.998;6.250;2023-07-31T11:31:02;18.40;99.90
16666;DHT22;8446;50.998;6.250;2023-07-31T11:33:29;18.30;99.90
16666;DHT22;8446;50.998;6.250;2023-07-31T11:35:57;18.50;99.90
16666;DHT22;8446;50.998;6.250;2023-07-31T11:38:25;18.40;99.90
16666;DHT22;8446;50.998;6.250;2023-07-31T11:40:52;18.30;99.90
16666;DHT22;8446;50.998;6.250;2023-07-31T11:43:20;18.20;99.90
16666;DHT22;8446;50.998;6.250;2023-07-31T11:45:50;18.30;99.90
16666;DHT22;8446;50.998;6.250;2023-07-31T11:48:22;18.20;99.90
16666;DHT22;8446;50.998;6.250;2023-07-31T11:50:50;18.40;99.90
16666;DHT22;8446;50.998;6.250;2023-07-31T11:53:22;18.40;99.90
16666;DHT22;8446;50.998;6.250;2023-07-31T11:55:51;18.20;99.90
16666;DHT22;8446;50.998;6.250;2023-07-31T11:58:19;18.10;99.90
16666;DHT22;8446;50.998;6.250;2023-07-31T12:00:46;18.00;99.90
16666;DHT22;8446;50.998;6.250;2023-07-31T12:03:15;17.80;99.90
16666;DHT22;8446;50.998;6.250;2023-07-31T12:05:42;18.00;99.90
16666;DHT22;8446;50.998;6.250;2023-07-31T12:08:10;17.80;99.90
16666;DHT22;8446;50.998;6.250;2023-07-31T12:10:37;17.90;99.90
16666;DHT22;8446;50.998;6.250;2023-07-31T12:13:08;17.90;99.90
16666;DHT22;8446;50.998;6.250;2023-07-31T12:15:39;17.90;99.90
16666;DHT22;8446;50.998;6.250;2023-07-31T12:18:08;18.10;99.90
16666;DHT22;8446;50.998;6.250;2023-07-31T12:20:40;18.50;99.90
16666;DHT22;8446;50.998;6.250;2023-07-31T12:23:13;18.80;99.90
16666;DHT22;8446;50.998;6.250;2023-07-31T12:25:40;19.00;99.90
16666;DHT22;8446;50.998;6.250;2023-07-31T12:28:07;19.00;99.90
16666;DHT22;8446;50.998;6.250;2023-07-31T12:30:38;19.00;99.90
16666;DHT22;8446;50.998;6.250;2023-07-31T12:33:06;18.80;99.90
16666;DHT22;8446;50.998;6.250;2023-07-31T12:35:40;18.80;99.90
16666;DHT22;8446;50.998;6.250;2023-07-31T12:38:07;18.80;99.90
16666;DHT22;8446;50.998;6.250;2023-07-31T12:40:37;18.90;99.90
16666;DHT22;8446;50.998;6.250;2023-07-31T12:43:04;18.70;99.90
16666;DHT22;8446;50.998;6.250;2023-07-31T12:45:31;18.60;99.90
16666;DHT22;8446;50.998;6.250;2023-07-31T12:47:59;18.50;99.90
16666;DHT22;8446;50.998;6.250;2023-07-31T12:50:26;18.40;99.90
16666;DHT22;8446;50.998;6.250;2023-07-31T12:52:54;18.40;99.90
16666;DHT22;8446;50.998;6.250;2023-07-31T12:55:21;18.50;99.90
16666;DHT22;8446;50.998;6.250;2023-07-31T12:57:48;18.60;99.90
16666;DHT22;8446;50.998;6.250;2023-07-31T13:00:15;18.70;99.90
16666;DHT22;8446;50.998;6.250;2023-07-31T13:02:42;18.80;99.90
16666;DHT22;8446;50.998;6.250;2023-07-31T13:05:09;19.20;99.90
16666;DHT22;8446;50.998;6.250;2023-07-31T13:07:36;19.40;99.90
16666;DHT22;8446;50.998;6.250;2023-07-31T13:10:06;19.40;99.90
16666;DHT22;8446;50.998;6.250;2023-07-31T13:12:33;19.80;99.90
16666;DHT22;8446;50.998;6.250;2023-07-31T13:15:00;19.70;99.90
16666;DHT22;8446;50.998;6.250;2023-07-31T13:17:27;19.90;99.90
16666;DHT22;8446;50.998;6.250;2023-07-31T13:19:54;19.90;99.90
16666;DHT22;8446;50.998;6.250;2023-07-31T13:22:21;20.00;99.90
16666;DHT22;8446;50.998;6.250;2023-07-31T13:24:47;20.10;99.90
16666;DHT22;8446;50.998;6.250;2023-07-31T13:27:16;19.80;99.90
16666;DHT22;8446;50.998;6.250;2023-07-31T13:29:44;19.80;99.90
16666;DHT22;8446;50.998;6.250;2023-07-31T13:32:11;19.90;99.90
16666;DHT22;8446;50.998;6.250;2023-07-31T13:34:38;20.10;99.90
16666;DHT22;8446;50.998;6.250;2023-07-31T13:37:05;20.10;99.90
16666;DHT22;8446;50.998;6.250;2023-07-31T13:39:32;20.10;99.90
16666;DHT22;8446;50.998;6.250;2023-07-31T13:41:59;19.70;99.90
16666;DHT22;8446;50.998;6.250;2023-07-31T13:44:27;19.50;99.90
16666;DHT22;8446;50.998;6.250;2023-07-31T13:46:54;19.30;99.90
16666;DHT22;8446;50.998;6.250;2023-07-31T13:49:21;19.10;99.90
16666;DHT22;8446;50.998;6.250;2023-07-31T13:51:48;19.00;99.90
16666;DHT22;8446;50.998;6.250;2023-07-31T13:54:14;19.00;99.90
16666;DHT22;8446;50.998;6.250;2023-07-31T13:56:42;19.00;99.90
16666;DHT22;8446;50.998;6.250;2023-07-31T13:59:10;19.00;99.90
16666;DHT22;8446;50.998;6.250;2023-07-31T14:01:38;18.90;99.90
16666;DHT22;8446;50.998;6.250;2023-07-31T14:04:04;18.90;99.90
16666;DHT22;8446;50.998;6.250;2023-07-31T14:06:31;18.90;99.90
16666;DHT22;8446;50.998;6.250;2023-07-31T14:08:58;19.00;99.90
16666;DHT22;8446;50.998;6.250;2023-07-31T14:11:25;19.00;99.90
16666;DHT22;8446;50.998;6.250;2023-07-31T14:13:52;19.10;99.90
16666;DHT22;8446;50.998;6.250;2023-07-31T14:16:19;19.20;99.90
16666;DHT22;8446;50.998;6.250;2023-07-31T14:18:47;19.40;99.90
16666;DHT22;8446;50.998;6.250;2023-07-31T14:21:14;19.50;99.90
16666;DHT22;8446;50.998;6.250;2023-07-31T14:23:41;19.60;99.90
16666;DHT22;8446;50.998;6.250;2023-07-31T14:26:08;19.70;99.90
16666;DHT22;8446;50.998;6.250;2023-07-31T14:28:35;19.60;99.90
16666;DHT22;8446;50.998;6.250;2023-07-31T14:31:01;19.40;99.90
16666;DHT22;8446;50.998;6.250;2023-07-31T14:33:28;19.30;99.90
16666;DHT22;8446;50.998;6.250;2023-07-31T14:35:56;19.30;99.90
16666;DHT22;8446;50.998;6.250;2023-07-31T14:38:23;19.30;99.90
16666;DHT22;8446;50.998;6.250;2023-07-31T14:40:50;19.40;99.90
16666;DHT22;8446;50.998;6.250;2023-07-31T14:43:17;19.50;99.90
16666;DHT22;8446;50.998;6.250;2023-07-31T14:45:44;19.50;99.90
16666;DHT22;8446;50.998;6.250;2023-07-31T14:48:12;19.40;99.90
16666;DHT22;8446;50.998;6.250;2023-07-31T14:50:39;19.30;99.90
16666;DHT22;8446;50.998;6.250;2023-07-31T14:53:08;19.40;99.90
16666;DHT22;8446;50.998;6.250;2023-07-31T14:55:34;19.20;99.90
16666;DHT22;8446;50.998;6.250;2023-07-31T14:58:02;19.20;99.90
16666;DHT22;8446;50.998;6.250;2023-07-31T15:00:28;19.20;99.90
16666;DHT22;8446;50.998;6.250;2023-07-31T15:02:55;19.10;99.90
16666;DHT22;8446;50.998;6.250;2023-07-31T15:05:22;19.10;99.90
16666;DHT22;8446;50.998;6.250;2023-07-31T15:07:49;19.20;99.90
16666;DHT22;8446;50.998;6.250;2023-07-31T15:10:17;19.30;99.90
16666;DHT22;8446;50.998;6.250;2023-07-31T15:12:44;19.40;99.90
16666;DHT22;8446;50.998;6.250;2023-07-31T15:15:11;19.40;99.90
16666;DHT22;8446;50.998;6.250;2023-07-31T15:17:37;19.30;99.90
16666;DHT22;8446;50.998;6.250;2023-07-31T15:20:05;19.20;99.90
16666;DHT22;8446;50.998;6.250;2023-07-31T15:22:32;19.10;99.90
16666;DHT22;8446;50.998;6.250;2023-07-31T15:24:59;19.10;99.90
16666;DHT22;8446;50.998;6.250;2023-07-31T15:27:27;19.00;99.90
16666;DHT22;8446;50.998;6.250;2023-07-31T15:29:54;19.10;99.90
16666;DHT22;8446;50.998;6.250;2023-07-31T15:32:21;19.00;99.90
16666;DHT22;8446;50.998;6.250;2023-07-31T15:34:49;18.90;99.90
16666;DHT22;8446;50.998;6.250;2023-07-31T15:37:15;18.70;99.90
16666;DHT22;8446;50.998;6.250;2023-07-31T15:39:43;18.60;99.90
16666;DHT22;8446;50.998;6.250;2023-07-31T15:42:09;18.50;99.90
16666;DHT22;8446;50.998;6.250;2023-07-31T15:44:38;18.30;99.90
16666;DHT22;8446;50.998;6.250;2023-07-31T15:47:05;18.30;99.90